sensor_id;sensor_type;location;lat;lon;timestamp;P1;durP1;ratioP1;P2;durP2;ratioP2
54735;SDS011;40632;51.442;11.936;2022-07-29T00:01:45;2.67;;;1.42;;
54735;SDS011;40632;51.442;11.936;2022-07-29T00:04:11;3.38;;;1.30;;
54735;SDS011;40632;51.442;11.936;2022-07-29T00:06:37;5.50;;;1.55;;
54735;SDS011;40632;51.442;11.936;2022-07-29T00:09:03;7.18;;;1.48;;
54735;SDS011;40632;51.442;11.936;2022-07-29T00:11:32;5.30;;;1.25;;
54735;SDS011;40632;51.442;11.936;2022-07-29T00:13:57;5.55;;;1.20;;
54735;SDS011;40632;51.442;11.936;2022-07-29T00:16:23;3.08;;;1.15;;
54735;SDS011;40632;51.442;11.936;2022-07-29T00:18:49;4.15;;;1.20;;
54735;SDS011;40632;51.442;11.936;2022-07-29T00:21:14;4.97;;;1.63;;
54735;SDS011;40632;51.442;11.936;2022-07-29T00:23:40;4.90;;;1.10;;
54735;SDS011;40632;51.442;11.936;2022-07-29T00:26:06;4.72;;;1.33;;
54735;SDS011;40632;51.442;11.936;2022-07-29T00:28:34;5.28;;;1.20;;
54735;SDS011;40632;51.442;11.936;2022-07-29T00:30:59;5.70;;;1.30;;
54735;SDS011;40632;51.442;11.936;2022-07-29T00:33:25;5.95;;;1.35;;
54735;SDS011;40632;51.442;11.936;2022-07-29T00:35:50;4.40;;;1.48;;
54735;SDS011;40632;51.442;11.936;2022-07-29T00:38:17;5.88;;;1.65;;
54735;SDS011;40632;51.442;11.936;2022-07-29T00:40:44;5.13;;;1.55;;
54735;SDS011;40632;51.442;11.936;2022-07-29T00:43:10;4.85;;;1.58;;
54735;SDS011;40632;51.442;11.936;2022-07-29T00:45:38;5.15;;;1.58;;
54735;SDS011;40632;51.442;11.936;2022-07-29T00:48:04;3.67;;;1.73;;
54735;SDS011;40632;51.442;11.936;2022-07-29T00:50:31;5.00;;;1.20;;
54735;SDS011;40632;51.442;11.936;2022-07-29T00:52:57;3.08;;;1.55;;
54735;SDS011;40632;51.442;11.936;2022-07-29T00:55:23;5.60;;;1.55;;
54735;SDS011;40632;51.442;11.936;2022-07-29T00:57:49;3.83;;;1.35;;
54735;SDS011;40632;51.442;11.936;2022-07-29T01:00:16;3.78;;;1.42;;
54735;SDS011;40632;51.442;11.936;2022-07-29T01:02:45;4.00;;;1.42;;
54735;SDS011;40632;51.442;11.936;2022-07-29T01:05:11;7.30;;;1.75;;
54735;SDS011;40632;51.442;11.936;2022-07-29T01:07:37;2.60;;;1.38;;
54735;SDS011;40632;51.442;11.936;2022-07-29T01:10:04;5.13;;;1.67;;
54735;SDS011;40632;51.442;11.936;2022-07-29T01:12:32;4.00;;;1.60;;
54735;SDS011;40632;51.442;11.936;2022-07-29T01:15:00;5.18;;;1.65;;
54735;SDS011;40632;51.442;11.936;2022-07-29T01:17:28;5.45;;;1.40;;
54735;SDS011;40632;51.442;11.936;2022-07-29T01:20:03;4.85;;;1.48;;
54735;SDS011;40632;51.442;11.936;2022-07-29T01:22:37;4.32;;;1.60;;
54735;SDS011;40632;51.442;11.936;2022-07-29T01:25:34;3.78;;;1.30;;
54735;SDS011;40632;51.442;11.936;2022-07-29T01:28:17;7.68;;;1.50;;
54735;SDS011;40632;51.442;11.936;2022-07-29T01:31:22;5.28;;;1.38;;
54735;SDS011;40632;51.442;11.936;2022-07-29T01:33:57;4.43;;;1.20;;
54735;SDS011;40632;51.442;11.936;2022-07-29T01:36:32;4.43;;;1.48;;
54735;SDS011;40632;51.442;11.936;2022-07-29T01:39:07;3.97;;;1.40;;
54735;SDS011;40632;51.442;11.936;2022-07-29T01:41:36;8.52;;;1.60;;
54735;SDS011;40632;51.442;11.936;2022-07-29T01:44:10;5.65;;;1.58;;
54735;SDS011;40632;51.442;11.936;2022-07-29T01:46:44;4.82;;;1.52;;
54735;SDS011;40632;51.442;11.936;2022-07-29T01:49:15;4.13;;;1.67;;
54735;SDS011;40632;51.442;11.936;2022-07-29T01:51:46;5.10;;;1.23;;
54735;SDS011;40632;51.442;11.936;2022-07-29T01:54:16;5.43;;;1.40;;
54735;SDS011;40632;51.442;11.936;2022-07-29T01:56:46;3.75;;;1.10;;
54735;SDS011;40632;51.442;11.936;2022-07-29T01:59:14;3.55;;;1.52;;
54735;SDS011;40632;51.442;11.936;2022-07-29T02:01:45;6.68;;;1.30;;
54735;SDS011;40632;51.442;11.936;2022-07-29T02:04:13;6.20;;;1.48;;
54735;SDS011;40632;51.442;11.936;2022-07-29T02:06:41;2.65;;;1.50;;
54735;SDS011;40632;51.442;11.936;2022-07-29T02:09:09;7.10;;;1.80;;
54735;SDS011;40632;51.442;11.936;2022-07-29T02:11:37;3.97;;;1.50;;
54735;SDS011;40632;51.442;11.936;2022-07-29T02:14:04;5.07;;;1.30;;
54735;SDS011;40632;51.442;11.936;2022-07-29T02:16:32;2.45;;;1.10;;
54735;SDS011;40632;51.442;11.936;2022-07-29T02:19:02;3.15;;;1.30;;
54735;SDS011;40632;51.442;11.936;2022-07-29T02:21:30;6.65;;;1.27;;
54735;SDS011;40632;51.442;11.936;2022-07-29T02:23:59;3.08;;;1.42;;
54735;SDS011;40632;51.442;11.936;2022-07-29T02:26:26;3.80;;;1.40;;
54735;SDS011;40632;51.442;11.936;2022-07-29T02:28:55;5.68;;;1.20;;
54735;SDS011;40632;51.442;11.936;2022-07-29T02:31:24;5.43;;;1.85;;
54735;SDS011;40632;51.442;11.936;2022-07-29T02:33:52;6.22;;;1.60;;
54735;SDS011;40632;51.442;11.936;2022-07-29T02:36:23;8.98;;;1.60;;
54735;SDS011;40632;51.442;11.936;2022-07-29T02:38:49;4.88;;;1.35;;
54735;SDS011;40632;51.442;11.936;2022-07-29T02:41:17;4.75;;;1.63;;
54735;SDS011;40632;51.442;11.936;2022-07-29T02:43:48;4.25;;;1.30;;
54735;SDS011;40632;51.442;11.936;2022-07-29T02:46:18;4.35;;;1.40;;
54735;SDS011;40632;51.442;11.936;2022-07-29T02:48:51;3.33;;;1.40;;
54735;SDS011;40632;51.442;11.936;2022-07-29T02:51:27;3.95;;;1.58;;
54735;SDS011;40632;51.442;11.936;2022-07-29T02:53:57;6.20;;;2.08;;
54735;SDS011;40632;51.442;11.936;2022-07-29T02:56:30;4.82;;;1.80;;
54735;SDS011;40632;51.442;11.936;2022-07-29T02:58:58;5.28;;;1.40;;
54735;SDS011;40632;51.442;11.936;2022-07-29T03:01:29;5.25;;;1.38;;
54735;SDS011;40632;51.442;11.936;2022-07-29T03:03:56;4.75;;;1.40;;
54735;SDS011;40632;51.442;11.936;2022-07-29T03:06:29;3.83;;;1.35;;
54735;SDS011;40632;51.442;11.936;2022-07-29T03:08:56;3.42;;;1.20;;
54735;SDS011;40632;51.442;11.936;2022-07-29T03:11:24;2.55;;;1.50;;
54735;SDS011;40632;51.442;11.936;2022-07-29T03:13:50;4.63;;;1.48;;
54735;SDS011;40632;51.442;11.936;2022-07-29T03:16:16;4.90;;;1.70;;
54735;SDS011;40632;51.442;11.936;2022-07-29T03:18:44;6.60;;;1.50;;
54735;SDS011;40632;51.442;11.936;2022-07-29T03:21:10;4.35;;;1.45;;
54735;SDS011;40632;51.442;11.936;2022-07-29T03:23:39;7.80;;;1.45;;
54735;SDS011;40632;51.442;11.936;2022-07-29T03:26:08;5.40;;;1.70;;
54735;SDS011;40632;51.442;11.936;2022-07-29T03:28:34;5.47;;;2.10;;
54735;SDS011;40632;51.442;11.936;2022-07-29T03:31:00;4.40;;;1.70;;
54735;SDS011;40632;51.442;11.936;2022-07-29T03:33:25;2.60;;;1.25;;
54735;SDS011;40632;51.442;11.936;2022-07-29T03:35:51;8.05;;;1.70;;
54735;SDS011;40632;51.442;11.936;2022-07-29T03:38:16;3.50;;;1.40;;
54735;SDS011;40632;51.442;11.936;2022-07-29T03:40:46;3.95;;;1.40;;
54735;SDS011;40632;51.442;11.936;2022-07-29T03:43:16;3.08;;;1.40;;
54735;SDS011;40632;51.442;11.936;2022-07-29T03:45:45;5.05;;;1.40;;
54735;SDS011;40632;51.442;11.936;2022-07-29T03:48:15;5.05;;;1.52;;
54735;SDS011;40632;51.442;11.936;2022-07-29T03:50:44;5.63;;;1.95;;
54735;SDS011;40632;51.442;11.936;2022-07-29T03:53:10;5.70;;;1.50;;
54735;SDS011;40632;51.442;11.936;2022-07-29T03:55:37;6.07;;;1.80;;
54735;SDS011;40632;51.442;11.936;2022-07-29T03:58:09;5.50;;;1.88;;
54735;SDS011;40632;51.442;11.936;2022-07-29T04:00:36;3.95;;;1.70;;
54735;SDS011;40632;51.442;11.936;2022-07-29T04:03:02;4.78;;;1.65;;
54735;SDS011;40632;51.442;11.936;2022-07-29T04:05:29;8.35;;;1.60;;
54735;SDS011;40632;51.442;11.936;2022-07-29T04:07:54;5.10;;;2.28;;
54735;SDS011;40632;51.442;11.936;2022-07-29T04:10:20;10.15;;;1.92;;
54735;SDS011;40632;51.442;11.936;2022-07-29T04:12:45;3.85;;;1.50;;
54735;SDS011;40632;51.442;11.936;2022-07-29T04:15:14;4.60;;;1.60;;
54735;SDS011;40632;51.442;11.936;2022-07-29T04:17:39;4.10;;;1.63;;
54735;SDS011;40632;51.442;11.936;2022-07-29T04:20:05;4.60;;;1.83;;
54735;SDS011;40632;51.442;11.936;2022-07-29T04:22:31;7.40;;;1.60;;
54735;SDS011;40632;51.442;11.936;2022-07-29T04:24:57;4.68;;;1.90;;
54735;SDS011;40632;51.442;11.936;2022-07-29T04:27:23;6.57;;;2.10;;
54735;SDS011;40632;51.442;11.936;2022-07-29T04:29:48;3.25;;;1.42;;
54735;SDS011;40632;51.442;11.936;2022-07-29T04:32:17;8.20;;;1.60;;
54735;SDS011;40632;51.442;11.936;2022-07-29T04:34:42;2.85;;;1.30;;
54735;SDS011;40632;51.442;11.936;2022-07-29T04:37:08;5.93;;;2.25;;
54735;SDS011;40632;51.442;11.936;2022-07-29T04:39:33;4.93;;;1.90;;
54735;SDS011;40632;51.442;11.936;2022-07-29T04:41:59;7.40;;;1.75;;
54735;SDS011;40632;51.442;11.936;2022-07-29T04:44:25;5.15;;;1.70;;
54735;SDS011;40632;51.442;11.936;2022-07-29T04:46:50;6.05;;;1.50;;
54735;SDS011;40632;51.442;11.936;2022-07-29T04:49:18;6.60;;;1.60;;
54735;SDS011;40632;51.442;11.936;2022-07-29T04:51:44;4.85;;;1.75;;
54735;SDS011;40632;51.442;11.936;2022-07-29T04:54:09;5.63;;;1.80;;
54735;SDS011;40632;51.442;11.936;2022-07-29T04:56:35;4.78;;;1.80;;
54735;SDS011;40632;51.442;11.936;2022-07-29T04:59:01;6.05;;;1.77;;
54735;SDS011;40632;51.442;11.936;2022-07-29T05:01:26;3.53;;;1.40;;
54735;SDS011;40632;51.442;11.936;2022-07-29T05:03:52;10.73;;;1.80;;
54735;SDS011;40632;51.442;11.936;2022-07-29T05:06:20;4.75;;;1.45;;
54735;SDS011;40632;51.442;11.936;2022-07-29T05:08:46;8.20;;;1.60;;
54735;SDS011;40632;51.442;11.936;2022-07-29T05:11:11;4.57;;;1.42;;
54735;SDS011;40632;51.442;11.936;2022-07-29T05:13:37;4.45;;;1.70;;
54735;SDS011;40632;51.442;11.936;2022-07-29T05:16:03;7.10;;;1.50;;
54735;SDS011;40632;51.442;11.936;2022-07-29T05:18:29;6.30;;;2.20;;
54735;SDS011;40632;51.442;11.936;2022-07-29T05:20:54;5.38;;;1.90;;
54735;SDS011;40632;51.442;11.936;2022-07-29T05:23:22;3.80;;;1.90;;
54735;SDS011;40632;51.442;11.936;2022-07-29T05:25:48;4.10;;;1.70;;
54735;SDS011;40632;51.442;11.936;2022-07-29T05:28:14;8.57;;;1.60;;
54735;SDS011;40632;51.442;11.936;2022-07-29T05:30:39;3.85;;;1.45;;
54735;SDS011;40632;51.442;11.936;2022-07-29T05:33:05;4.90;;;1.60;;
54735;SDS011;40632;51.442;11.936;2022-07-29T05:35:30;3.80;;;1.70;;
54735;SDS011;40632;51.442;11.936;2022-07-29T05:37:56;10.18;;;1.85;;
54735;SDS011;40632;51.442;11.936;2022-07-29T05:40:24;4.60;;;1.60;;
54735;SDS011;40632;51.442;11.936;2022-07-29T05:42:49;2.67;;;1.23;;
54735;SDS011;40632;51.442;11.936;2022-07-29T05:45:15;4.57;;;1.58;;
54735;SDS011;40632;51.442;11.936;2022-07-29T05:47:41;5.40;;;1.65;;
54735;SDS011;40632;51.442;11.936;2022-07-29T05:50:07;4.72;;;1.77;;
54735;SDS011;40632;51.442;11.936;2022-07-29T05:52:33;3.50;;;1.60;;
54735;SDS011;40632;51.442;11.936;2022-07-29T05:54:59;7.20;;;1.38;;
54735;SDS011;40632;51.442;11.936;2022-07-29T05:57:27;5.05;;;1.55;;
54735;SDS011;40632;51.442;11.936;2022-07-29T05:59:52;4.07;;;1.80;;
54735;SDS011;40632;51.442;11.936;2022-07-29T06:02:18;5.72;;;1.80;;
54735;SDS011;40632;51.442;11.936;2022-07-29T06:04:43;8.85;;;1.90;;
54735;SDS011;40632;51.442;11.936;2022-07-29T06:07:09;4.35;;;1.50;;
54735;SDS011;40632;51.442;11.936;2022-07-29T06:09:35;4.93;;;1.50;;
54735;SDS011;40632;51.442;11.936;2022-07-29T06:12:00;6.15;;;1.65;;
54735;SDS011;40632;51.442;11.936;2022-07-29T06:14:29;5.95;;;2.20;;
54735;SDS011;40632;51.442;11.936;2022-07-29T06:16:54;5.43;;;1.48;;
54735;SDS011;40632;51.442;11.936;2022-07-29T06:19:20;6.38;;;1.50;;
54735;SDS011;40632;51.442;11.936;2022-07-29T06:21:46;6.60;;;1.60;;
54735;SDS011;40632;51.442;11.936;2022-07-29T06:24:12;7.63;;;1.65;;
54735;SDS011;40632;51.442;11.936;2022-07-29T06:26:38;5.07;;;1.48;;
54735;SDS011;40632;51.442;11.936;2022-07-29T06:29:04;2.88;;;1.45;;
54735;SDS011;40632;51.442;11.936;2022-07-29T06:31:32;16.50;;;2.15;;
54735;SDS011;40632;51.442;11.936;2022-07-29T06:33:58;6.82;;;1.50;;
54735;SDS011;40632;51.442;11.936;2022-07-29T06:36:24;4.47;;;1.70;;
54735;SDS011;40632;51.442;11.936;2022-07-29T06:38:50;3.45;;;1.58;;
54735;SDS011;40632;51.442;11.936;2022-07-29T06:41:15;5.68;;;1.80;;
54735;SDS011;40632;51.442;11.936;2022-07-29T06:43:41;4.85;;;1.50;;
54735;SDS011;40632;51.442;11.936;2022-07-29T06:46:09;8.93;;;1.60;;
54735;SDS011;40632;51.442;11.936;2022-07-29T06:48:38;7.07;;;1.70;;
54735;SDS011;40632;51.442;11.936;2022-07-29T06:51:04;9.25;;;1.90;;
54735;SDS011;40632;51.442;11.936;2022-07-29T06:53:31;8.73;;;1.88;;
54735;SDS011;40632;51.442;11.936;2022-07-29T06:55:57;8.00;;;2.00;;
54735;SDS011;40632;51.442;11.936;2022-07-29T06:58:23;4.43;;;1.52;;
54735;SDS011;40632;51.442;11.936;2022-07-29T07:00:49;5.18;;;1.77;;
54735;SDS011;40632;51.442;11.936;2022-07-29T07:03:15;10.05;;;1.70;;
54735;SDS011;40632;51.442;11.936;2022-07-29T07:05:43;5.95;;;1.52;;
54735;SDS011;40632;51.442;11.936;2022-07-29T07:08:10;4.60;;;1.65;;
54735;SDS011;40632;51.442;11.936;2022-07-29T07:10:36;5.63;;;1.58;;
54735;SDS011;40632;51.442;11.936;2022-07-29T07:13:02;8.55;;;1.90;;
54735;SDS011;40632;51.442;11.936;2022-07-29T07:15:29;5.15;;;1.88;;
54735;SDS011;40632;51.442;11.936;2022-07-29T07:17:54;5.28;;;1.98;;
54735;SDS011;40632;51.442;11.936;2022-07-29T07:20:21;8.13;;;2.15;;
54735;SDS011;40632;51.442;11.936;2022-07-29T07:22:49;4.57;;;1.55;;
54735;SDS011;40632;51.442;11.936;2022-07-29T07:25:15;8.50;;;1.80;;
54735;SDS011;40632;51.442;11.936;2022-07-29T07:27:40;7.47;;;1.70;;
54735;SDS011;40632;51.442;11.936;2022-07-29T07:30:06;5.05;;;1.63;;
54735;SDS011;40632;51.442;11.936;2022-07-29T07:32:32;9.73;;;1.73;;
54735;SDS011;40632;51.442;11.936;2022-07-29T07:34:58;4.68;;;1.80;;
54735;SDS011;40632;51.442;11.936;2022-07-29T07:37:24;8.65;;;1.80;;
54735;SDS011;40632;51.442;11.936;2022-07-29T07:39:52;5.05;;;1.63;;
54735;SDS011;40632;51.442;11.936;2022-07-29T07:42:18;7.15;;;2.17;;
54735;SDS011;40632;51.442;11.936;2022-07-29T07:44:44;4.43;;;1.88;;
54735;SDS011;40632;51.442;11.936;2022-07-29T07:47:10;5.60;;;1.92;;
54735;SDS011;40632;51.442;11.936;2022-07-29T07:49:35;5.85;;;2.00;;
54735;SDS011;40632;51.442;11.936;2022-07-29T07:52:01;7.93;;;2.25;;
54735;SDS011;40632;51.442;11.936;2022-07-29T07:54:26;7.75;;;2.83;;
54735;SDS011;40632;51.442;11.936;2022-07-29T07:56:55;7.75;;;2.90;;
54735;SDS011;40632;51.442;11.936;2022-07-29T07:59:20;7.10;;;3.15;;
54735;SDS011;40632;51.442;11.936;2022-07-29T08:01:46;9.70;;;2.67;;
54735;SDS011;40632;51.442;11.936;2022-07-29T08:04:11;7.68;;;2.75;;
54735;SDS011;40632;51.442;11.936;2022-07-29T08:06:37;5.90;;;2.80;;
54735;SDS011;40632;51.442;11.936;2022-07-29T08:09:03;9.75;;;2.90;;
54735;SDS011;40632;51.442;11.936;2022-07-29T08:11:29;7.72;;;3.10;;
54735;SDS011;40632;51.442;11.936;2022-07-29T08:13:58;10.65;;;4.55;;
54735;SDS011;40632;51.442;11.936;2022-07-29T08:16:24;12.43;;;4.45;;
54735;SDS011;40632;51.442;11.936;2022-07-29T08:18:49;11.23;;;3.42;;
54735;SDS011;40632;51.442;11.936;2022-07-29T08:21:15;6.95;;;3.83;;
54735;SDS011;40632;51.442;11.936;2022-07-29T08:23:41;6.85;;;3.28;;
54735;SDS011;40632;51.442;11.936;2022-07-29T08:26:07;10.32;;;4.15;;
54735;SDS011;40632;51.442;11.936;2022-07-29T08:28:33;11.48;;;3.90;;
54735;SDS011;40632;51.442;11.936;2022-07-29T08:31:01;12.73;;;4.03;;
54735;SDS011;40632;51.442;11.936;2022-07-29T08:33:27;11.32;;;4.72;;
54735;SDS011;40632;51.442;11.936;2022-07-29T08:35:52;13.27;;;4.63;;
54735;SDS011;40632;51.442;11.936;2022-07-29T08:38:18;9.68;;;4.65;;
54735;SDS011;40632;51.442;11.936;2022-07-29T08:40:44;10.38;;;4.63;;
54735;SDS011;40632;51.442;11.936;2022-07-29T08:43:10;12.65;;;5.03;;
54735;SDS011;40632;51.442;11.936;2022-07-29T08:45:41;9.35;;;4.70;;
54735;SDS011;40632;51.442;11.936;2022-07-29T08:48:10;9.55;;;4.45;;
54735;SDS011;40632;51.442;11.936;2022-07-29T08:50:36;11.93;;;5.13;;
54735;SDS011;40632;51.442;11.936;2022-07-29T08:53:04;8.75;;;4.50;;
54735;SDS011;40632;51.442;11.936;2022-07-29T08:55:31;9.05;;;4.05;;
54735;SDS011;40632;51.442;11.936;2022-07-29T08:57:57;7.35;;;4.03;;
54735;SDS011;40632;51.442;11.936;2022-07-29T09:00:23;12.48;;;3.63;;
54735;SDS011;40632;51.442;11.936;2022-07-29T09:02:54;10.68;;;4.05;;
54735;SDS011;40632;51.442;11.936;2022-07-29T09:05:24;9.23;;;3.65;;
54735;SDS011;40632;51.442;11.936;2022-07-29T09:07:51;7.60;;;3.60;;
54735;SDS011;40632;51.442;11.936;2022-07-29T09:10:17;11.30;;;3.38;;
54735;SDS011;40632;51.442;11.936;2022-07-29T09:12:43;9.60;;;3.15;;
54735;SDS011;40632;51.442;11.936;2022-07-29T09:15:09;7.07;;;2.90;;
54735;SDS011;40632;51.442;11.936;2022-07-29T09:17:41;7.95;;;3.35;;
54735;SDS011;40632;51.442;11.936;2022-07-29T09:22:37;10.85;;;3.88;;
54735;SDS011;40632;51.442;11.936;2022-07-29T09:25:03;8.40;;;3.65;;
54735;SDS011;40632;51.442;11.936;2022-07-29T09:27:29;8.52;;;2.85;;
54735;SDS011;40632;51.442;11.936;2022-07-29T09:29:55;9.93;;;3.13;;
54735;SDS011;40632;51.442;11.936;2022-07-29T09:32:22;7.03;;;3.15;;
54735;SDS011;40632;51.442;11.936;2022-07-29T09:34:48;9.00;;;3.10;;
54735;SDS011;40632;51.442;11.936;2022-07-29T09:37:25;9.18;;;3.03;;
54735;SDS011;40632;51.442;11.936;2022-07-29T09:39:54;7.10;;;3.45;;
54735;SDS011;40632;51.442;11.936;2022-07-29T09:42:27;6.50;;;2.80;;
54735;SDS011;40632;51.442;11.936;2022-07-29T09:44:53;6.60;;;2.80;;
54735;SDS011;40632;51.442;11.936;2022-07-29T09:47:19;6.60;;;2.15;;
54735;SDS011;40632;51.442;11.936;2022-07-29T09:49:51;11.48;;;2.60;;
54735;SDS011;40632;51.442;11.936;2022-07-29T09:52:20;7.28;;;2.55;;
54735;SDS011;40632;51.442;11.936;2022-07-29T09:54:46;4.93;;;2.30;;
54735;SDS011;40632;51.442;11.936;2022-07-29T09:57:24;7.75;;;2.20;;
54735;SDS011;40632;51.442;11.936;2022-07-29T09:59:58;6.47;;;2.60;;
54735;SDS011;40632;51.442;11.936;2022-07-29T10:02:28;6.65;;;2.30;;
54735;SDS011;40632;51.442;11.936;2022-07-29T10:04:55;9.20;;;2.53;;
54735;SDS011;40632;51.442;11.936;2022-07-29T10:07:21;5.10;;;2.03;;
54735;SDS011;40632;51.442;11.936;2022-07-29T10:09:49;4.68;;;2.30;;
54735;SDS011;40632;51.442;11.936;2022-07-29T10:12:18;6.40;;;2.10;;
54735;SDS011;40632;51.442;11.936;2022-07-29T10:14:46;6.13;;;2.03;;
54735;SDS011;40632;51.442;11.936;2022-07-29T10:17:13;6.47;;;2.30;;
54735;SDS011;40632;51.442;11.936;2022-07-29T10:19:40;5.07;;;1.90;;
54735;SDS011;40632;51.442;11.936;2022-07-29T10:22:06;7.80;;;2.00;;
54735;SDS011;40632;51.442;11.936;2022-07-29T10:24:33;4.82;;;2.10;;
54735;SDS011;40632;51.442;11.936;2022-07-29T10:27:00;6.30;;;2.22;;
54735;SDS011;40632;51.442;11.936;2022-07-29T10:29:27;8.38;;;2.10;;
54735;SDS011;40632;51.442;11.936;2022-07-29T10:31:59;3.97;;;2.42;;
54735;SDS011;40632;51.442;11.936;2022-07-29T10:34:36;7.75;;;2.50;;
54735;SDS011;40632;51.442;11.936;2022-07-29T10:37:19;6.03;;;2.30;;
54735;SDS011;40632;51.442;11.936;2022-07-29T10:39:54;9.48;;;2.35;;
54735;SDS011;40632;51.442;11.936;2022-07-29T10:42:25;6.78;;;2.30;;
54735;SDS011;40632;51.442;11.936;2022-07-29T10:44:54;4.32;;;2.13;;
54735;SDS011;40632;51.442;11.936;2022-07-29T10:47:24;5.00;;;2.10;;
54735;SDS011;40632;51.442;11.936;2022-07-29T10:49:55;4.78;;;1.95;;
54735;SDS011;40632;51.442;11.936;2022-07-29T10:52:21;5.75;;;2.30;;
54735;SDS011;40632;51.442;11.936;2022-07-29T10:54:48;5.18;;;2.28;;
54735;SDS011;40632;51.442;11.936;2022-07-29T10:57:15;5.97;;;1.95;;
54735;SDS011;40632;51.442;11.936;2022-07-29T10:59:43;4.53;;;1.90;;
54735;SDS011;40632;51.442;11.936;2022-07-29T11:05:08;5.03;;;2.13;;
54735;SDS011;40632;51.442;11.936;2022-07-29T11:07:35;3.78;;;1.85;;
54735;SDS011;40632;51.442;11.936;2022-07-29T11:12:54;5.87;;;1.90;;
54735;SDS011;40632;51.442;11.936;2022-07-29T11:15:20;3.83;;;1.70;;
54735;SDS011;40632;51.442;11.936;2022-07-29T11:18:02;6.07;;;1.85;;
54735;SDS011;40632;51.442;11.936;2022-07-29T11:20:35;4.10;;;1.80;;
54735;SDS011;40632;51.442;11.936;2022-07-29T11:23:17;6.63;;;1.90;;
54735;SDS011;40632;51.442;11.936;2022-07-29T11:25:43;6.57;;;2.30;;
54735;SDS011;40632;51.442;11.936;2022-07-29T11:28:10;6.00;;;2.00;;
54735;SDS011;40632;51.442;11.936;2022-07-29T11:30:47;7.15;;;2.00;;
54735;SDS011;40632;51.442;11.936;2022-07-29T11:33:26;5.55;;;1.85;;
54735;SDS011;40632;51.442;11.936;2022-07-29T11:38:38;6.55;;;2.10;;
54735;SDS011;40632;51.442;11.936;2022-07-29T11:41:19;5.28;;;1.77;;
54735;SDS011;40632;51.442;11.936;2022-07-29T11:43:46;4.85;;;2.00;;
54735;SDS011;40632;51.442;11.936;2022-07-29T11:46:11;7.68;;;1.85;;
54735;SDS011;40632;51.442;11.936;2022-07-29T11:48:40;5.05;;;2.15;;
54735;SDS011;40632;51.442;11.936;2022-07-29T11:51:08;5.13;;;1.80;;
54735;SDS011;40632;51.442;11.936;2022-07-29T11:53:37;6.70;;;2.15;;
54735;SDS011;40632;51.442;11.936;2022-07-29T11:56:04;4.75;;;1.80;;
54735;SDS011;40632;51.442;11.936;2022-07-29T11:58:33;4.00;;;2.00;;
54735;SDS011;40632;51.442;11.936;2022-07-29T12:01:00;9.30;;;2.13;;
54735;SDS011;40632;51.442;11.936;2022-07-29T12:03:27;4.47;;;1.70;;
54735;SDS011;40632;51.442;11.936;2022-07-29T12:05:53;3.83;;;1.90;;
54735;SDS011;40632;51.442;11.936;2022-07-29T12:08:22;3.40;;;1.60;;
54735;SDS011;40632;51.442;11.936;2022-07-29T12:10:48;6.53;;;3.33;;
54735;SDS011;40632;51.442;11.936;2022-07-29T12:13:15;4.72;;;1.40;;
54735;SDS011;40632;51.442;11.936;2022-07-29T12:15:50;3.17;;;1.65;;
54735;SDS011;40632;51.442;11.936;2022-07-29T12:18:17;3.65;;;1.60;;
54735;SDS011;40632;51.442;11.936;2022-07-29T12:20:44;5.80;;;2.03;;
54735;SDS011;40632;51.442;11.936;2022-07-29T12:23:11;2.78;;;1.55;;
54735;SDS011;40632;51.442;11.936;2022-07-29T12:25:40;5.30;;;1.73;;
54735;SDS011;40632;51.442;11.936;2022-07-29T12:28:07;3.88;;;1.48;;
54735;SDS011;40632;51.442;11.936;2022-07-29T12:30:38;7.22;;;2.15;;
54735;SDS011;40632;51.442;11.936;2022-07-29T12:33:13;4.10;;;1.65;;
54735;SDS011;40632;51.442;11.936;2022-07-29T12:35:42;4.72;;;1.60;;
54735;SDS011;40632;51.442;11.936;2022-07-29T12:38:09;4.65;;;1.50;;
54735;SDS011;40632;51.442;11.936;2022-07-29T12:40:35;4.07;;;1.38;;
54735;SDS011;40632;51.442;11.936;2022-07-29T12:43:04;3.63;;;1.42;;
54735;SDS011;40632;51.442;11.936;2022-07-29T12:45:31;5.78;;;1.58;;
54735;SDS011;40632;51.442;11.936;2022-07-29T12:47:57;5.93;;;1.63;;
54735;SDS011;40632;51.442;11.936;2022-07-29T12:50:22;3.42;;;1.38;;
54735;SDS011;40632;51.442;11.936;2022-07-29T12:52:48;5.40;;;1.50;;
54735;SDS011;40632;51.442;11.936;2022-07-29T12:55:14;2.97;;;1.50;;
54735;SDS011;40632;51.442;11.936;2022-07-29T12:57:48;5.32;;;1.77;;
54735;SDS011;40632;51.442;11.936;2022-07-29T13:00:16;4.82;;;1.48;;
54735;SDS011;40632;51.442;11.936;2022-07-29T13:02:46;4.30;;;1.75;;
54735;SDS011;40632;51.442;11.936;2022-07-29T13:05:20;3.95;;;1.45;;
54735;SDS011;40632;51.442;11.936;2022-07-29T13:07:46;2.58;;;1.50;;
54735;SDS011;40632;51.442;11.936;2022-07-29T13:10:13;3.35;;;1.65;;
54735;SDS011;40632;51.442;11.936;2022-07-29T13:12:39;3.40;;;1.77;;
54735;SDS011;40632;51.442;11.936;2022-07-29T13:15:35;4.40;;;1.60;;
54735;SDS011;40632;51.442;11.936;2022-07-29T13:18:01;3.03;;;1.50;;
54735;SDS011;40632;51.442;11.936;2022-07-29T13:20:29;4.10;;;1.63;;
54735;SDS011;40632;51.442;11.936;2022-07-29T13:22:56;3.90;;;1.70;;
54735;SDS011;40632;51.442;11.936;2022-07-29T13:25:25;8.30;;;1.83;;
54735;SDS011;40632;51.442;11.936;2022-07-29T13:27:52;7.15;;;1.83;;
54735;SDS011;40632;51.442;11.936;2022-07-29T13:30:21;2.22;;;1.50;;
54735;SDS011;40632;51.442;11.936;2022-07-29T13:32:47;3.20;;;1.50;;
54735;SDS011;40632;51.442;11.936;2022-07-29T13:35:13;6.95;;;2.20;;
54735;SDS011;40632;51.442;11.936;2022-07-29T13:37:39;6.43;;;1.92;;
54735;SDS011;40632;51.442;11.936;2022-07-29T13:40:06;3.70;;;1.67;;
54735;SDS011;40632;51.442;11.936;2022-07-29T13:42:33;3.45;;;1.75;;
54735;SDS011;40632;51.442;11.936;2022-07-29T13:44:58;6.03;;;2.08;;
54735;SDS011;40632;51.442;11.936;2022-07-29T13:47:27;5.07;;;1.50;;
54735;SDS011;40632;51.442;11.936;2022-07-29T13:49:53;6.05;;;1.83;;
54735;SDS011;40632;51.442;11.936;2022-07-29T13:52:18;4.35;;;1.58;;
54735;SDS011;40632;51.442;11.936;2022-07-29T13:54:44;5.82;;;2.08;;
54735;SDS011;40632;51.442;11.936;2022-07-29T13:57:11;4.03;;;1.70;;
54735;SDS011;40632;51.442;11.936;2022-07-29T13:59:37;5.65;;;2.03;;
54735;SDS011;40632;51.442;11.936;2022-07-29T14:02:05;3.67;;;1.73;;
54735;SDS011;40632;51.442;11.936;2022-07-29T14:04:33;5.63;;;1.80;;
54735;SDS011;40632;51.442;11.936;2022-07-29T14:06:59;6.82;;;1.98;;
54735;SDS011;40632;51.442;11.936;2022-07-29T14:09:25;4.50;;;2.05;;
54735;SDS011;40632;51.442;11.936;2022-07-29T14:11:50;4.65;;;1.80;;
54735;SDS011;40632;51.442;11.936;2022-07-29T14:14:16;7.55;;;1.92;;
54735;SDS011;40632;51.442;11.936;2022-07-29T14:16:42;3.50;;;1.60;;
54735;SDS011;40632;51.442;11.936;2022-07-29T14:19:07;3.78;;;1.88;;
54735;SDS011;40632;51.442;11.936;2022-07-29T14:21:36;4.70;;;1.90;;
54735;SDS011;40632;51.442;11.936;2022-07-29T14:24:02;5.43;;;1.85;;
54735;SDS011;40632;51.442;11.936;2022-07-29T14:26:28;3.67;;;1.73;;
54735;SDS011;40632;51.442;11.936;2022-07-29T14:28:54;5.97;;;2.00;;
54735;SDS011;40632;51.442;11.936;2022-07-29T14:31:19;6.80;;;1.88;;
54735;SDS011;40632;51.442;11.936;2022-07-29T14:33:45;3.17;;;1.63;;
54735;SDS011;40632;51.442;11.936;2022-07-29T14:36:10;2.60;;;1.65;;
54735;SDS011;40632;51.442;11.936;2022-07-29T14:38:39;6.35;;;1.88;;
54735;SDS011;40632;51.442;11.936;2022-07-29T14:41:04;4.05;;;1.83;;
54735;SDS011;40632;51.442;11.936;2022-07-29T14:43:30;3.22;;;1.63;;
54735;SDS011;40632;51.442;11.936;2022-07-29T14:45:56;2.25;;;1.50;;
54735;SDS011;40632;51.442;11.936;2022-07-29T14:48:22;5.00;;;1.70;;